createdAt,value
2023-04-03T00:00:04.087Z,6.07
2023-04-03T00:03:09.066Z,2.73
2023-04-03T00:06:12.933Z,3.00
2023-04-03T00:09:15.570Z,6.75
2023-04-03T00:12:18.531Z,2.75
2023-04-03T00:15:21.196Z,2.28
2023-04-03T00:18:23.993Z,3.00
2023-04-03T00:21:27.101Z,3.83
2023-04-03T00:24:29.827Z,4.75
2023-04-03T00:27:32.388Z,3.00
2023-04-03T00:30:35.645Z,2.70
2023-04-03T00:33:38.290Z,2.87
2023-04-03T00:36:41.146Z,2.95
2023-04-03T00:39:43.658Z,4.03
2023-04-03T00:42:49.417Z,2.67
2023-04-03T00:45:54.082Z,3.00
2023-04-03T00:48:56.792Z,4.27
2023-04-03T00:51:59.888Z,4.05
2023-04-03T00:55:07.303Z,4.32
2023-04-03T00:58:10.548Z,7.57
2023-04-03T01:01:17.326Z,5.40
2023-04-03T01:04:40.585Z,5.00
2023-04-03T01:07:43.697Z,2.53
2023-04-03T01:10:46.201Z,3.75
2023-04-03T01:13:50.501Z,3.25
2023-04-03T01:16:54.512Z,3.70
2023-04-03T01:20:12.688Z,1.87
2023-04-03T01:23:28.019Z,2.62
2023-04-03T01:26:31.060Z,2.55
2023-04-03T01:29:34.178Z,6.03
2023-04-03T01:32:37.062Z,11.48
2023-04-03T01:35:39.754Z,4.10
2023-04-03T01:38:42.579Z,2.62
2023-04-03T01:41:45.057Z,9.75
2023-04-03T01:44:48.341Z,7.50
2023-04-03T01:47:51.192Z,5.43
2023-04-03T01:50:55.271Z,3.60
2023-04-03T01:53:57.819Z,4.28
2023-04-03T01:57:00.709Z,6.37
2023-04-03T02:00:03.963Z,2.72
2023-04-03T02:03:16.047Z,6.62
2023-04-03T02:06:19.101Z,7.27
2023-04-03T02:09:21.625Z,4.68
2023-04-03T02:12:24.961Z,2.30
2023-04-03T02:15:27.514Z,2.00
2023-04-03T02:18:30.310Z,2.05
2023-04-03T02:21:32.906Z,2.27
2023-04-03T02:24:35.639Z,2.58
2023-04-03T02:27:38.013Z,2.58
2023-04-03T02:30:40.777Z,1.83
2023-04-03T02:33:43.363Z,3.55
2023-04-03T02:36:46.672Z,4.50
2023-04-03T02:39:49.763Z,1.85
2023-04-03T02:42:52.577Z,2.28
2023-04-03T02:45:55.218Z,2.80
2023-04-03T02:48:58.006Z,2.08
2023-04-03T02:52:00.734Z,1.87
2023-04-03T02:55:04.725Z,3.60
2023-04-03T02:58:09.605Z,1.37
2023-04-03T03:01:13.264Z,1.98
2023-04-03T03:04:16.057Z,2.20
2023-04-03T03:07:18.757Z,1.50
2023-04-03T03:10:21.369Z,2.42
2023-04-03T03:13:24.107Z,1.98
2023-04-03T03:16:26.548Z,2.08
2023-04-03T03:19:29.398Z,4.72
2023-04-03T03:22:34.903Z,2.50
2023-04-03T03:25:41.813Z,2.42
2023-04-03T03:28:44.352Z,2.12
2023-04-03T03:31:47.267Z,2.97
2023-04-03T03:34:49.755Z,2.08
2023-04-03T03:37:52.455Z,2.43
2023-04-03T03:40:54.945Z,1.50
2023-04-03T03:43:58.885Z,1.67
2023-04-03T03:47:04.121Z,1.87
2023-04-03T03:50:07.639Z,1.73
2023-04-03T03:53:10.189Z,2.93
2023-04-03T03:56:13.771Z,1.50
2023-04-03T03:59:17.665Z,1.70
2023-04-03T04:02:21.080Z,1.60
2023-04-03T04:05:24.006Z,3.47
2023-04-03T04:08:28.082Z,2.27
2023-04-03T04:11:31.021Z,2.20
2023-04-03T04:14:33.756Z,3.83
2023-04-03T04:17:37.311Z,1.80
2023-04-03T04:20:40.343Z,2.33
2023-04-03T04:23:43.912Z,2.67
2023-04-03T04:26:46.318Z,1.65
2023-04-03T04:29:49.375Z,2.22
2023-04-03T04:32:52.551Z,3.03
2023-04-03T04:35:56.081Z,2.28
2023-04-03T04:38:59.567Z,2.53
2023-04-03T04:42:02.914Z,4.90
2023-04-03T04:45:06.454Z,2.67
2023-04-03T04:48:09.543Z,1.50
2023-04-03T04:51:13.024Z,1.90
2023-04-03T04:54:15.939Z,1.70
2023-04-03T04:57:19.210Z,1.52
2023-04-03T05:00:22.854Z,3.42
2023-04-03T05:03:25.464Z,3.33
2023-04-03T05:08:50.179Z,1.27
2023-04-03T05:11:53.766Z,3.10
2023-04-03T05:14:57.052Z,1.95
2023-04-03T05:18:00.599Z,2.00
2023-04-03T05:21:03.464Z,4.28
2023-04-03T05:24:10.122Z,1.37
2023-04-03T05:27:13.857Z,1.20
2023-04-03T05:30:18.431Z,2.42
2023-04-03T05:33:21.498Z,0.93
2023-04-03T05:36:24.807Z,1.23
2023-04-03T05:39:29.429Z,1.47
2023-04-03T05:42:33.070Z,1.37
2023-04-03T05:45:36.291Z,2.62
2023-04-03T05:48:39.625Z,1.70
2023-04-03T05:51:42.915Z,2.47
2023-04-03T05:54:49.373Z,9.00
2023-04-03T05:57:52.725Z,1.00
2023-04-03T06:00:56.460Z,2.95
2023-04-03T06:04:00.127Z,4.37
2023-04-03T06:07:03.536Z,2.80
2023-04-03T06:10:07.856Z,4.07
2023-04-03T06:13:10.340Z,4.17
2023-04-03T06:16:16.393Z,3.33
2023-04-03T06:19:20.498Z,2.75
2023-04-03T06:22:24.471Z,11.18
2023-04-03T06:25:27.713Z,4.23
2023-04-03T06:28:30.550Z,4.33
2023-04-03T06:31:33.027Z,2.67
2023-04-03T06:34:36.410Z,2.00
2023-04-03T06:37:39.376Z,2.15
2023-04-03T06:40:41.986Z,2.17
2023-04-03T06:43:46.017Z,2.63
2023-04-03T06:46:49.639Z,2.65
2023-04-03T06:49:52.283Z,3.00
2023-04-03T06:52:55.163Z,1.98
2023-04-03T06:55:57.580Z,2.57
2023-04-03T06:59:00.863Z,1.97
2023-04-03T07:02:03.698Z,4.78
2023-04-03T07:05:07.126Z,6.35
2023-04-03T07:08:09.602Z,2.20
2023-04-03T07:11:13.457Z,6.97
2023-04-03T07:14:16.030Z,4.43
2023-04-03T07:17:19.057Z,14.52
2023-04-03T07:20:21.518Z,6.07
2023-04-03T07:23:24.343Z,7.57
2023-04-03T07:26:26.710Z,5.90
2023-04-03T07:29:29.527Z,1.83
2023-04-03T07:32:32.163Z,5.30
2023-04-03T07:35:34.912Z,5.55
2023-04-03T07:38:38.491Z,8.18
2023-04-03T07:41:41.641Z,6.75
2023-04-03T07:44:44.326Z,7.20
2023-04-03T07:47:47.237Z,20.27
2023-04-03T07:50:49.939Z,10.13
2023-04-03T07:53:52.663Z,10.85
2023-04-03T07:56:55.052Z,9.73
2023-04-03T07:59:57.802Z,7.83
2023-04-03T08:03:00.408Z,7.50
2023-04-03T08:06:09.136Z,4.85
2023-04-03T08:09:16.473Z,16.45
2023-04-03T08:12:19.469Z,13.90
2023-04-03T08:15:22.072Z,8.20
2023-04-03T08:18:25.745Z,10.40
2023-04-03T08:21:28.135Z,15.02
2023-04-03T08:24:30.816Z,16.50
2023-04-03T08:27:36.040Z,19.70
2023-04-03T08:30:43.511Z,15.00
2023-04-03T08:33:46.461Z,10.35
2023-04-03T08:36:49.543Z,5.28
2023-04-03T08:39:52.090Z,9.98
2023-04-03T08:42:57.865Z,12.77
2023-04-03T08:46:04.550Z,18.70
2023-04-03T08:49:24.195Z,24.35
2023-04-03T08:52:43.980Z,9.75
2023-04-03T08:55:48.801Z,16.62
2023-04-03T08:59:01.478Z,10.68
2023-04-03T09:02:14.335Z,7.73
2023-04-03T09:05:26.684Z,11.45
2023-04-03T09:08:38.098Z,15.85
2023-04-03T09:11:52.302Z,21.52
2023-04-03T09:15:24.811Z,31.40
2023-04-03T09:18:42.930Z,22.53
2023-04-03T09:21:45.850Z,18.55
2023-04-03T09:24:53.828Z,11.77
2023-04-03T09:27:57.087Z,16.58
2023-04-03T09:31:01.707Z,23.10
2023-04-03T09:34:10.895Z,17.87
2023-04-03T09:37:38.598Z,17.98
2023-04-03T09:40:47.321Z,16.98
2023-04-03T09:43:55.447Z,13.85
2023-04-03T09:46:58.958Z,15.23
2023-04-03T09:50:14.203Z,14.00
2023-04-03T09:53:36.469Z,15.77
2023-04-03T09:56:39.152Z,20.27
2023-04-03T10:00:05.829Z,14.20
2023-04-03T10:03:32.167Z,18.02
2023-04-03T10:06:47.912Z,3.60
2023-04-03T10:09:57.688Z,11.93
2023-04-03T10:13:16.487Z,9.13
2023-04-03T10:16:33.789Z,11.32
2023-04-03T10:19:43.393Z,8.77
2023-04-03T10:23:01.335Z,6.33
2023-04-03T10:26:13.237Z,7.85
2023-04-03T10:29:47.242Z,14.48
2023-04-03T10:33:27.602Z,13.93
2023-04-03T10:36:45.580Z,12.60
2023-04-03T10:40:12.388Z,8.00
2023-04-03T10:43:53.665Z,12.55
2023-04-03T10:47:19.539Z,13.35
2023-04-03T10:50:49.862Z,11.95
2023-04-03T10:54:07.502Z,13.57
2023-04-03T10:57:13.888Z,15.30
2023-04-03T11:00:24.236Z,11.32
2023-04-03T11:03:38.812Z,16.65
2023-04-03T11:06:51.918Z,8.98
2023-04-03T11:10:06.694Z,11.05
2023-04-03T11:13:18.224Z,9.23
2023-04-03T11:16:26.419Z,12.07
2023-04-03T11:19:37.532Z,21.05
2023-04-03T11:22:48.090Z,20.02
2023-04-03T11:25:55.325Z,13.13
2023-04-03T11:29:02.786Z,19.07
2023-04-03T11:32:17.269Z,20.83
2023-04-03T11:35:21.368Z,11.02
2023-04-03T11:38:58.419Z,18.62
2023-04-03T11:42:29.553Z,12.00
2023-04-03T11:46:01.986Z,13.90
2023-04-03T11:49:04.787Z,6.90
2023-04-03T11:52:12.082Z,12.02
2023-04-03T11:55:21.268Z,11.32
2023-04-03T11:58:37.289Z,11.27
2023-04-03T12:01:45.043Z,8.07
2023-04-03T12:05:26.199Z,16.05
2023-04-03T12:08:48.356Z,14.95
2023-04-03T12:11:51.167Z,14.00
2023-04-03T12:14:53.684Z,24.58
2023-04-03T12:17:56.629Z,21.83
2023-04-03T12:21:00.166Z,16.95
2023-04-03T12:24:04.885Z,19.73
2023-04-03T12:27:17.980Z,18.98
2023-04-03T12:30:27.576Z,21.55
2023-04-03T12:33:44.282Z,15.73
2023-04-03T12:37:04.801Z,14.68
2023-04-03T12:40:22.359Z,12.68
2023-04-03T12:43:43.803Z,25.35
2023-04-03T12:46:51.985Z,16.45
2023-04-03T12:49:56.227Z,24.27
2023-04-03T12:53:01.059Z,21.85
2023-04-03T12:56:33.379Z,12.05
2023-04-03T12:59:37.681Z,21.20
2023-04-03T13:02:46.318Z,22.13
2023-04-03T13:05:48.904Z,12.37
2023-04-03T13:09:01.427Z,8.65
2023-04-03T13:12:15.338Z,21.42
2023-04-03T13:15:26.886Z,10.15
2023-04-03T13:18:35.637Z,15.25
2023-04-03T13:21:38.522Z,24.47
2023-04-03T13:24:41.226Z,25.73
2023-04-03T13:27:45.521Z,14.27
2023-04-03T13:31:06.302Z,14.18
2023-04-03T13:34:19.843Z,16.70
2023-04-03T13:37:34.444Z,15.17
2023-04-03T13:40:50.137Z,17.73
2023-04-03T13:43:55.508Z,27.20
2023-04-03T13:47:09.024Z,23.60
2023-04-03T13:50:14.357Z,14.18
2023-04-03T13:53:17.247Z,9.33
2023-04-03T13:56:26.453Z,7.60
2023-04-03T13:59:33.270Z,21.05
2023-04-03T14:02:35.849Z,17.35
2023-04-03T14:05:39.061Z,9.75
2023-04-03T14:08:43.864Z,23.97
2023-04-03T14:11:51.808Z,15.85
2023-04-03T14:14:54.432Z,26.87
2023-04-03T14:17:57.397Z,13.85
2023-04-03T14:21:00.007Z,12.68
2023-04-03T14:24:02.715Z,12.93
2023-04-03T14:27:15.956Z,14.05
2023-04-03T14:30:33.962Z,16.80
2023-04-03T14:33:36.759Z,16.10
2023-04-03T14:36:41.592Z,17.02
2023-04-03T14:39:46.301Z,24.87
2023-04-03T14:42:49.966Z,15.05
2023-04-03T14:45:52.610Z,19.05
2023-04-03T14:48:55.563Z,12.13
2023-04-03T14:51:59.141Z,22.00
2023-04-03T14:55:03.393Z,18.07
2023-04-03T14:58:06.084Z,18.48
2023-04-03T15:01:11.445Z,18.08
2023-04-03T15:04:19.849Z,13.55
2023-04-03T15:07:25.078Z,30.70
2023-04-03T15:10:30.483Z,28.43
2023-04-03T15:13:33.304Z,29.58
2023-04-03T15:16:35.812Z,25.83
2023-04-03T15:19:39.525Z,25.25
2023-04-03T15:22:42.007Z,26.23
2023-04-03T15:25:47.307Z,15.70
2023-04-03T15:28:49.690Z,10.73
2023-04-03T15:31:54.630Z,16.15
2023-04-03T15:34:57.274Z,14.80
2023-04-03T15:38:00.003Z,16.10
2023-04-03T15:41:02.388Z,22.93
2023-04-03T15:44:05.134Z,15.13
2023-04-03T15:47:07.634Z,18.37
2023-04-03T15:50:10.658Z,13.30
2023-04-03T15:53:13.006Z,14.27
2023-04-03T15:56:15.849Z,16.23
2023-04-03T15:59:18.777Z,8.07
2023-04-03T16:02:22.460Z,15.52
2023-04-03T16:05:26.166Z,24.00
2023-04-03T16:08:28.992Z,11.13
2023-04-03T16:11:31.804Z,13.10
2023-04-03T16:14:34.413Z,9.98
2023-04-03T16:17:39.063Z,11.38
2023-04-03T16:20:41.781Z,18.77
2023-04-03T16:23:45.862Z,15.97
2023-04-03T16:26:48.292Z,18.20
2023-04-03T16:29:51.082Z,8.23
2023-04-03T16:32:54.623Z,13.18
2023-04-03T16:35:57.276Z,7.90
2023-04-03T16:38:59.578Z,15.00
2023-04-03T16:42:02.289Z,16.83
2023-04-03T16:45:05.893Z,17.67
2023-04-03T16:48:08.898Z,15.48
2023-04-03T16:51:12.675Z,15.13
2023-04-03T16:54:15.415Z,15.93
2023-04-03T16:57:17.769Z,16.60
2023-04-03T17:00:23.543Z,15.10
2023-04-03T17:03:27.021Z,10.75
2023-04-03T17:06:30.016Z,16.65
2023-04-03T17:09:33.357Z,22.27
2023-04-03T17:12:36.240Z,19.00
2023-04-03T17:15:39.069Z,14.25
2023-04-03T17:18:43.021Z,11.95
2023-04-03T17:21:46.456Z,12.35
2023-04-03T17:24:49.152Z,8.77
2023-04-03T17:27:51.518Z,15.70
2023-04-03T17:30:59.155Z,7.37
2023-04-03T17:34:04.494Z,11.95
2023-04-03T17:37:08.517Z,19.73
2023-04-03T17:40:14.467Z,13.00
2023-04-03T17:43:17.268Z,9.00
2023-04-03T17:46:19.903Z,10.15
2023-04-03T17:49:22.897Z,5.85
2023-04-03T17:52:28.366Z,12.10
2023-04-03T17:55:31.170Z,12.83
2023-04-03T17:58:33.563Z,11.23
2023-04-03T18:01:36.840Z,13.32
2023-04-03T18:04:39.646Z,11.15
2023-04-03T18:07:42.162Z,5.62
2023-04-03T18:10:45.155Z,5.03
2023-04-03T18:13:48.154Z,7.53
2023-04-03T18:16:51.970Z,7.47
2023-04-03T18:19:54.375Z,19.50
2023-04-03T18:22:57.155Z,9.90
2023-04-03T18:26:02.991Z,12.40
2023-04-03T18:29:08.932Z,6.23
2023-04-03T18:32:14.930Z,7.20
2023-04-03T18:35:17.976Z,5.28
2023-04-03T18:38:20.527Z,3.85
2023-04-03T18:41:27.645Z,3.70
2023-04-03T18:44:31.509Z,5.67
2023-04-03T18:47:34.406Z,10.52
2023-04-03T18:50:36.859Z,4.45
2023-04-03T18:56:47.412Z,4.80
2023-04-03T18:59:50.443Z,5.33
2023-04-03T19:02:53.403Z,8.77
2023-04-03T19:05:56.435Z,5.45
2023-04-03T19:08:59.741Z,3.95
2023-04-03T19:12:02.469Z,7.50
2023-04-03T19:15:05.634Z,6.70
2023-04-03T19:18:08.312Z,3.90
2023-04-03T19:21:10.807Z,6.40
2023-04-03T19:24:13.983Z,4.15
2023-04-03T19:27:16.684Z,6.50
2023-04-03T19:30:19.458Z,8.63
2023-04-03T19:33:21.953Z,5.00
2023-04-03T19:36:24.694Z,5.55
2023-04-03T19:39:29.080Z,11.15
2023-04-03T19:42:32.545Z,5.20
2023-04-03T19:45:35.001Z,6.93
2023-04-03T19:48:37.951Z,6.70
2023-04-03T19:51:40.575Z,8.57
2023-04-03T19:54:43.567Z,4.87
2023-04-03T19:57:45.929Z,6.23
2023-04-03T20:00:48.837Z,8.70
2023-04-03T20:03:51.833Z,8.90
2023-04-03T20:06:54.630Z,4.43
2023-04-03T20:09:57.343Z,9.77
2023-04-03T20:12:59.902Z,4.53
2023-04-03T20:16:04.907Z,6.67
2023-04-03T20:19:07.887Z,4.50
2023-04-03T20:22:10.742Z,7.12
2023-04-03T20:25:17.454Z,4.10
2023-04-03T20:28:28.030Z,5.10
2023-04-03T20:31:31.976Z,13.67
2023-04-03T20:34:34.759Z,4.85
2023-04-03T20:37:38.672Z,5.57
2023-04-03T20:40:41.657Z,3.92
2023-04-03T20:43:45.659Z,7.17
2023-04-03T20:46:53.043Z,5.73
2023-04-03T20:49:56.762Z,5.03
2023-04-03T20:53:00.632Z,6.43
2023-04-03T20:56:04.116Z,8.75
2023-04-03T20:59:06.819Z,3.73
2023-04-03T21:02:09.289Z,6.63
2023-04-03T21:05:13.099Z,6.62
2023-04-03T21:08:53.079Z,6.15
2023-04-03T21:12:33.215Z,4.95
2023-04-03T21:15:52.473Z,4.40
2023-04-03T21:19:15.862Z,5.97
2023-04-03T21:22:20.381Z,8.57
2023-04-03T21:25:23.156Z,9.38
2023-04-03T21:28:26.614Z,4.25
2023-04-03T21:31:57.054Z,4.67
2023-04-03T21:34:59.460Z,5.83
2023-04-03T21:38:02.450Z,12.50
2023-04-03T21:41:05.064Z,4.68
2023-04-03T21:44:07.986Z,9.77
2023-04-03T21:47:11.596Z,9.10
2023-04-03T21:50:14.391Z,7.03
2023-04-03T21:53:16.905Z,4.97
2023-04-03T21:56:22.245Z,9.45
2023-04-03T21:59:24.817Z,5.43
2023-04-03T22:02:27.866Z,5.73
2023-04-03T22:05:32.256Z,5.13
2023-04-03T22:08:35.653Z,5.03
2023-04-03T22:11:40.348Z,6.93
2023-04-03T22:14:42.705Z,5.82
2023-04-03T22:17:45.480Z,6.90
2023-04-03T22:20:47.799Z,7.27
2023-04-03T22:23:54.681Z,7.87
2023-04-03T22:26:57.264Z,8.00
2023-04-03T22:30:00.020Z,5.10
2023-04-03T22:33:02.610Z,4.73
2023-04-03T22:36:07.010Z,7.73
2023-04-03T22:39:12.314Z,8.82
2023-04-03T22:42:15.034Z,8.10
2023-04-03T22:45:17.338Z,7.50
2023-04-03T22:48:20.071Z,10.23
2023-04-03T22:51:22.576Z,8.47
2023-04-03T22:54:25.437Z,8.95
2023-04-03T22:57:27.877Z,5.45
2023-04-03T23:00:30.703Z,7.55
2023-04-03T23:03:34.408Z,10.47
2023-04-03T23:06:38.105Z,6.37
2023-04-03T23:09:41.165Z,5.45
2023-04-03T23:12:43.831Z,6.85
2023-04-03T23:15:56.051Z,8.73
2023-04-03T23:18:58.848Z,9.33
2023-04-03T23:22:01.903Z,5.43
2023-04-03T23:25:05.065Z,6.70
2023-04-03T23:28:07.642Z,13.50
2023-04-03T23:31:10.674Z,3.95
2023-04-03T23:34:13.053Z,6.37
2023-04-03T23:37:15.851Z,6.57
2023-04-03T23:40:18.186Z,14.30
2023-04-03T23:43:21.222Z,9.30
2023-04-03T23:46:23.837Z,13.30
2023-04-03T23:49:27.556Z,6.07
2023-04-03T23:52:30.704Z,8.47
2023-04-03T23:55:33.448Z,6.15
2023-04-03T23:58:35.954Z,3.83
